Aérodrome :
LOGIN :

S'inscrire | Disclaimer

   EN    FR    IT 

 










Légende :    VFR   VFR Marginal   IFR   IFR Intensif   IFR Très Intensif
Visi : 
Plafond : 
>= 8 km
>= 3000ft
5 à 8 km
1000 à 3000 ft
1500m à 5 km
500 à 1000 ft
800 à 1500m
200 à 500 ft
< 800m
< 200 ft
Symboles :   Orages  Brouillard  Fortes neiges  Fortes précipitations  Vent > 20 kt
SIGMETs :   Divers  Orages  Givrage  Turbulence  Onde Orograph.  Cendres Volcan.






- Altitude de l'aérodrome : 26 ft
- Code IATA : GLA


EGPF - Glasgow

DERNIER METAR :
  • 030120Z AUTO 25004KT 9999 BKN033 OVC044 04/00 Q1013

METARs EXPIRÉS :
  • 022350Z AUTO 23006KT 9999 NCD 03/00 Q1013
  • 022320Z AUTO 23007KT 9999 NCD 04/M00 Q1013

TAF TAF EGPF
Valide du 03 à 00h jusqu'au 04 à 00h UTC


022259Z 0300/0324 26009KT 9999 SCT030
PROB40
TEMPO 0300/0316 5000 SHRA BKN014
TEMPO 0316/0324 4000 RADZ BKN008
ATIS : +44 141 887 7449



MET'MAP, la Météo Aéronautique d'un coup d'oeil ! - Copyright ORBIFLY Décembre 2007 - Disclaimer

ORBIFLY MET'MAP TEAM :

Programmation & Développement : Alexandra Zaïnal
Sur une idée originale de : Baudouin d'Aumeries
Assistance à la programmation : Marc-Olivier Méhu
Soutien technique & logistique : Manuel Goepfert

Contact : metmap@orbifly.com




SOURCES & CREDITS :

   NOAA